createdAt,value
2018-11-22T00:01:53.249Z,5.00
2018-11-22T00:04:34.501Z,5.00
2018-11-22T00:07:16.109Z,5.00
2018-11-22T00:09:57.174Z,5.00
2018-11-22T00:12:39.466Z,5.00
2018-11-22T00:18:08.255Z,5.00
2018-11-22T00:20:49.400Z,5.00
2018-11-22T00:23:30.412Z,5.00
2018-11-22T00:26:11.934Z,5.00
2018-11-22T00:31:38.262Z,5.00
2018-11-22T00:37:04.097Z,5.00
2018-11-22T00:39:45.131Z,5.00
2018-11-22T00:42:26.025Z,5.00
2018-11-22T00:47:55.892Z,5.00
2018-11-22T00:53:26.081Z,5.00
2018-11-22T00:56:07.152Z,5.00
2018-11-22T00:58:48.252Z,5.00
2018-11-22T01:01:29.237Z,5.00
2018-11-22T01:04:10.489Z,5.00
2018-11-22T01:06:54.269Z,5.00
2018-11-22T01:12:23.905Z,5.00
2018-11-22T01:15:05.197Z,5.00
2018-11-22T01:17:46.769Z,5.00
2018-11-22T01:20:28.393Z,5.00
2018-11-22T01:23:10.040Z,5.00
2018-11-22T01:25:51.376Z,5.00
2018-11-22T01:28:32.468Z,5.00
2018-11-22T01:31:13.627Z,5.00
2018-11-22T01:33:43.057Z,5.00
2018-11-22T01:36:31.673Z,5.00
2018-11-22T01:39:20.056Z,5.00
2018-11-22T01:42:08.424Z,5.00
2018-11-22T01:44:56.801Z,5.00
2018-11-22T01:47:45.185Z,5.00
2018-11-22T01:56:37.772Z,5.00
2018-11-22T02:02:28.261Z,5.00
2018-11-22T02:05:18.001Z,4.90
2018-11-22T02:08:06.397Z,4.90
2018-11-22T02:10:35.761Z,4.90
2018-11-22T02:13:24.148Z,4.90
2018-11-22T02:16:12.525Z,4.90
2018-11-22T02:19:01.181Z,4.90
2018-11-22T02:21:49.585Z,4.90
2018-11-22T02:24:38.273Z,4.90
2018-11-22T02:27:26.658Z,4.90
2018-11-22T02:30:16.446Z,4.90
2018-11-22T02:33:04.838Z,4.90
2018-11-22T02:35:53.231Z,4.90
2018-11-22T02:38:41.889Z,4.90
2018-11-22T02:41:30.278Z,4.90
2018-11-22T02:44:18.930Z,4.90
2018-11-22T02:47:07.609Z,4.90
2018-11-22T02:49:55.981Z,4.90
2018-11-22T02:52:44.513Z,4.90
2018-11-22T02:55:32.870Z,4.90
2018-11-22T02:58:21.461Z,4.90
2018-11-22T03:01:09.853Z,4.90
2018-11-22T03:03:58.466Z,4.90
2018-11-22T03:09:41.765Z,4.90
2018-11-22T03:12:30.120Z,4.90
2018-11-22T03:15:18.805Z,4.90
2018-11-22T03:18:07.413Z,5.00
2018-11-22T03:20:55.782Z,5.00
2018-11-22T03:23:44.138Z,5.00
2018-11-22T03:26:32.507Z,5.00
2018-11-22T03:29:20.845Z,5.00
2018-11-22T03:32:09.449Z,4.90
2018-11-22T03:34:58.069Z,4.90
2018-11-22T03:37:46.454Z,4.90
2018-11-22T03:40:35.046Z,4.90
2018-11-22T03:43:24.279Z,4.90
2018-11-22T03:46:12.616Z,4.90
2018-11-22T03:49:01.249Z,4.90
2018-11-22T03:51:49.613Z,4.90
2018-11-22T03:54:37.972Z,4.90
2018-11-22T03:57:26.428Z,4.90
2018-11-22T04:00:16.697Z,4.90
2018-11-22T04:03:05.289Z,4.90
2018-11-22T04:05:53.666Z,4.90
2018-11-22T04:08:42.321Z,4.80
2018-11-22T04:11:30.737Z,4.80
2018-11-22T04:14:19.322Z,4.80
2018-11-22T04:17:07.697Z,4.80
2018-11-22T04:19:56.317Z,4.80
2018-11-22T04:22:44.973Z,4.80
2018-11-22T04:28:35.780Z,4.80
2018-11-22T04:31:24.412Z,4.80
2018-11-22T04:34:13.297Z,4.80
2018-11-22T04:37:01.666Z,4.80
2018-11-22T04:39:50.289Z,4.80
2018-11-22T04:42:38.739Z,4.80
2018-11-22T04:45:27.117Z,4.80
2018-11-22T04:48:15.748Z,4.80
2018-11-22T04:51:04.133Z,4.80
2018-11-22T04:53:52.488Z,4.80
2018-11-22T04:56:41.112Z,4.80
2018-11-22T04:59:29.721Z,4.80
2018-11-22T05:05:13.903Z,4.70
2018-11-22T05:08:02.345Z,4.70
2018-11-22T05:10:50.759Z,4.70
2018-11-22T05:13:39.228Z,4.70
2018-11-22T05:16:27.841Z,4.70
2018-11-22T05:19:16.201Z,4.70
2018-11-22T05:22:04.565Z,4.70
2018-11-22T05:24:53.148Z,4.70
2018-11-22T05:27:41.648Z,4.80
2018-11-22T05:30:30.336Z,4.80
2018-11-22T05:33:18.709Z,4.80
2018-11-22T05:39:02.090Z,4.70
2018-11-22T05:41:50.435Z,4.70
2018-11-22T05:44:39.265Z,4.70
2018-11-22T05:47:27.648Z,4.70
2018-11-22T05:50:17.553Z,4.70
2018-11-22T05:53:06.138Z,4.70
2018-11-22T05:55:54.745Z,4.70
2018-11-22T06:01:45.817Z,4.70
2018-11-22T06:04:34.169Z,4.70
2018-11-22T06:07:22.798Z,4.70
2018-11-22T06:10:12.709Z,4.70
2018-11-22T06:18:54.175Z,4.60
2018-11-22T06:21:42.794Z,4.60
2018-11-22T06:24:31.418Z,4.60
2018-11-22T06:27:20.044Z,4.60
2018-11-22T06:30:12.530Z,4.60
2018-11-22T06:33:01.932Z,4.60
2018-11-22T06:38:46.341Z,4.60
2018-11-22T06:41:34.965Z,4.60
2018-11-22T06:44:23.328Z,4.70
2018-11-22T06:47:11.693Z,4.60
2018-11-22T06:50:00.321Z,4.60
2018-11-22T06:55:41.585Z,4.60
2018-11-22T06:58:30.197Z,4.60
2018-11-22T07:01:18.808Z,4.60
2018-11-22T07:07:04.177Z,4.60
2018-11-22T07:24:54.083Z,4.70
2018-11-22T07:27:42.487Z,4.80
2018-11-22T07:30:32.525Z,4.80
2018-11-22T07:33:21.133Z,4.80
2018-11-22T07:36:09.492Z,4.80
2018-11-22T07:38:58.133Z,4.80
2018-11-22T07:41:46.789Z,4.90
2018-11-22T07:44:35.402Z,4.80
2018-11-22T07:47:23.749Z,4.90
2018-11-22T07:50:13.585Z,4.90
2018-11-22T07:53:01.992Z,4.90
2018-11-22T07:55:50.605Z,4.80
2018-11-22T08:01:33.528Z,4.80
2018-11-22T08:04:21.896Z,4.80
2018-11-22T08:07:10.288Z,4.90
2018-11-22T08:09:58.665Z,4.90
2018-11-22T08:12:48.044Z,4.90
2018-11-22T08:18:32.949Z,4.90
2018-11-22T08:21:22.010Z,4.90
2018-11-22T08:24:10.385Z,5.00
2018-11-22T08:26:59.017Z,5.00
2018-11-22T08:29:47.634Z,5.00
2018-11-22T08:32:36.274Z,5.00
2018-11-22T08:35:24.675Z,5.00
2018-11-22T08:38:13.045Z,5.00
2018-11-22T08:41:01.759Z,5.00
2018-11-22T08:43:50.119Z,5.00
2018-11-22T08:46:38.517Z,5.00
2018-11-22T08:49:27.141Z,5.10
2018-11-22T08:52:15.773Z,5.10
2018-11-22T08:55:04.468Z,5.10
2018-11-22T08:57:53.078Z,5.10
2018-11-22T09:03:50.516Z,5.10
2018-11-22T09:06:38.900Z,5.10
2018-11-22T09:09:27.499Z,5.10
2018-11-22T09:12:15.885Z,5.10
2018-11-22T09:15:04.248Z,5.20
2018-11-22T09:17:53.025Z,5.20
2018-11-22T09:23:38.627Z,5.30
2018-11-22T09:26:26.697Z,5.40
2018-11-22T09:29:15.084Z,5.40
2018-11-22T09:34:58.266Z,5.40
2018-11-22T09:37:47.007Z,5.40
2018-11-22T09:40:36.226Z,5.50
2018-11-22T09:43:17.523Z,5.50
2018-11-22T09:45:58.651Z,5.50
2018-11-22T09:48:39.834Z,5.50
2018-11-22T09:51:21.166Z,5.60
2018-11-22T09:54:02.504Z,5.60
2018-11-22T09:56:43.446Z,5.60
2018-11-22T09:59:24.614Z,5.70
2018-11-22T10:02:08.040Z,5.70
2018-11-22T10:07:37.439Z,5.70
2018-11-22T10:10:21.016Z,5.70
2018-11-22T10:13:10.010Z,5.70
2018-11-22T10:18:54.135Z,5.70
2018-11-22T10:21:42.503Z,5.70
2018-11-22T10:24:30.867Z,5.70
2018-11-22T10:27:19.531Z,5.80
2018-11-22T10:30:27.238Z,5.90
2018-11-22T10:33:15.967Z,6.00
2018-11-22T10:36:04.341Z,6.10
2018-11-22T10:38:52.723Z,6.20
2018-11-22T10:41:41.079Z,6.20
2018-11-22T10:44:29.444Z,6.30
2018-11-22T10:47:17.852Z,6.30
2018-11-22T10:50:07.207Z,6.30
2018-11-22T10:56:12.320Z,6.30
2018-11-22T10:59:00.779Z,6.30
2018-11-22T11:02:07.944Z,6.40
2018-11-22T11:05:15.097Z,6.40
2018-11-22T11:08:22.249Z,6.30
2018-11-22T11:14:06.621Z,6.20
2018-11-22T11:16:55.219Z,6.10
2018-11-22T11:19:43.606Z,6.10
2018-11-22T11:22:32.225Z,6.00
2018-11-22T11:25:20.977Z,6.00
2018-11-22T11:28:09.694Z,6.00
2018-11-22T11:30:58.323Z,6.10
2018-11-22T11:33:46.683Z,6.10
2018-11-22T11:36:35.061Z,6.20
2018-11-22T11:39:23.688Z,6.20
2018-11-22T11:42:12.320Z,6.30
2018-11-22T11:45:03.233Z,6.40
2018-11-22T11:47:51.620Z,6.30
2018-11-22T11:50:40.012Z,6.40
2018-11-22T11:53:41.042Z,6.40
2018-11-22T11:56:17.688Z,6.40
2018-11-22T11:59:06.135Z,6.50
2018-11-22T12:01:54.724Z,6.50
2018-11-22T12:04:43.328Z,6.40
2018-11-22T12:07:31.712Z,6.40
2018-11-22T12:10:21.444Z,6.40
2018-11-22T12:13:10.072Z,6.40
2018-11-22T12:15:58.435Z,6.30
2018-11-22T12:18:47.080Z,6.30
2018-11-22T12:21:35.463Z,6.30
2018-11-22T12:27:16.564Z,6.40
2018-11-22T12:30:05.366Z,6.40
2018-11-22T12:33:12.538Z,6.40
2018-11-22T12:36:19.686Z,6.40
2018-11-22T12:39:09.517Z,6.50
2018-11-22T12:45:01.704Z,6.40
2018-11-22T12:47:50.303Z,6.40
2018-11-22T12:50:39.216Z,6.40
2018-11-22T12:53:27.948Z,6.40
2018-11-22T12:56:16.784Z,6.40
2018-11-22T12:59:05.189Z,6.40
2018-11-22T13:04:49.428Z,6.50
2018-11-22T13:07:37.780Z,6.50
2018-11-22T13:10:26.424Z,6.50
2018-11-22T13:13:14.768Z,6.50
2018-11-22T13:16:03.368Z,6.60
2018-11-22T13:18:51.733Z,6.60
2018-11-22T13:21:40.347Z,6.70
2018-11-22T13:24:29.221Z,6.80
2018-11-22T13:27:17.571Z,6.80
2018-11-22T13:30:08.128Z,6.90
2018-11-22T13:32:57.021Z,7.00
2018-11-22T13:35:45.410Z,7.10
2018-11-22T13:41:29.566Z,7.20
2018-11-22T13:44:18.105Z,7.30
2018-11-22T13:47:06.469Z,7.40
2018-11-22T13:49:54.862Z,7.50
2018-11-22T13:52:43.716Z,7.70
2018-11-22T13:55:32.372Z,7.80
2018-11-22T13:58:20.743Z,7.80
2018-11-22T14:01:09.139Z,7.50
2018-11-22T14:03:57.744Z,7.30
2018-11-22T14:06:46.131Z,7.20
2018-11-22T14:09:35.016Z,7.20
2018-11-22T14:12:23.393Z,7.10
2018-11-22T14:18:12.920Z,6.90
2018-11-22T14:21:01.544Z,6.90
2018-11-22T14:24:09.753Z,6.80
2018-11-22T14:26:58.220Z,6.70
2018-11-22T14:29:46.592Z,6.60
2018-11-22T14:32:34.976Z,6.50
2018-11-22T14:35:24.324Z,6.40
2018-11-22T14:38:12.700Z,6.40
2018-11-22T14:41:01.117Z,6.40
2018-11-22T14:43:49.575Z,6.30
2018-11-22T14:46:37.964Z,6.30
2018-11-22T14:49:26.364Z,6.20
2018-11-22T14:55:07.874Z,6.20
2018-11-22T14:57:56.247Z,6.10
2018-11-22T15:00:44.728Z,6.10
2018-11-22T15:03:33.372Z,6.10
2018-11-22T15:06:21.764Z,6.00
2018-11-22T15:09:10.757Z,6.00
2018-11-22T15:11:59.173Z,6.00
2018-11-22T15:14:47.560Z,5.90
2018-11-22T15:17:35.941Z,5.90
2018-11-22T15:20:24.288Z,5.90
2018-11-22T15:23:32.332Z,5.80
2018-11-22T15:26:20.955Z,5.70
2018-11-22T15:29:09.334Z,5.70
2018-11-22T15:34:53.464Z,5.60
2018-11-22T15:37:41.921Z,5.60
2018-11-22T15:40:30.595Z,5.50
2018-11-22T15:43:19.248Z,5.40
2018-11-22T15:48:58.412Z,5.40
2018-11-22T16:00:44.261Z,5.20
2018-11-22T16:06:34.893Z,5.10
2018-11-22T16:09:23.400Z,5.10
2018-11-22T16:12:11.992Z,5.00
2018-11-22T16:15:00.700Z,4.90
2018-11-22T16:20:43.860Z,4.80
2018-11-22T16:23:32.268Z,4.80
2018-11-22T16:29:09.676Z,4.70
2018-11-22T16:31:58.148Z,4.60
2018-11-22T16:34:46.521Z,4.60
2018-11-22T16:37:34.889Z,4.50
2018-11-22T16:40:43.255Z,4.40
2018-11-22T16:43:31.647Z,4.40
2018-11-22T16:49:09.023Z,4.30
2018-11-22T16:51:57.451Z,4.30
2018-11-22T16:54:45.884Z,4.20
2018-11-22T16:57:34.452Z,4.20
2018-11-22T17:03:14.809Z,4.10
2018-11-22T17:06:03.209Z,4.00
2018-11-22T17:08:51.604Z,4.00
2018-11-22T17:14:36.004Z,3.90
2018-11-22T17:17:24.384Z,3.80
2018-11-22T17:20:13.948Z,3.80
2018-11-22T17:23:02.754Z,3.80
2018-11-22T17:25:51.895Z,3.70
2018-11-22T17:28:40.271Z,3.70
2018-11-22T17:31:28.632Z,3.70
2018-11-22T17:34:17.240Z,3.60
2018-11-22T17:37:05.692Z,3.60
2018-11-22T17:39:54.309Z,3.50
2018-11-22T17:42:42.829Z,3.50
2018-11-22T17:45:32.804Z,3.50
2018-11-22T17:51:23.341Z,3.40
2018-11-22T17:54:11.745Z,3.30
2018-11-22T18:00:16.681Z,3.30
2018-11-22T18:06:01.962Z,3.20
2018-11-22T18:08:50.333Z,3.20
2018-11-22T18:14:47.876Z,3.10
2018-11-22T18:17:36.945Z,3.10
2018-11-22T18:20:26.760Z,3.10
2018-11-22T18:23:15.159Z,3.10
2018-11-22T18:26:03.591Z,3.10
2018-11-22T18:28:52.216Z,3.00
2018-11-22T18:31:40.598Z,3.00
2018-11-22T18:34:29.018Z,3.00
2018-11-22T18:37:17.396Z,3.00
2018-11-22T18:40:03.992Z,2.90
2018-11-22T18:43:12.253Z,2.90
2018-11-22T18:46:00.632Z,2.90
2018-11-22T18:48:48.996Z,2.90
2018-11-22T18:51:37.372Z,2.90
2018-11-22T18:57:18.092Z,2.80
2018-11-22T19:03:04.335Z,2.70
2018-11-22T19:05:52.745Z,2.70
2018-11-22T19:08:41.109Z,2.70
2018-11-22T19:11:29.460Z,2.60
2018-11-22T19:14:17.864Z,2.60
2018-11-22T19:20:08.944Z,2.50
2018-11-22T19:22:52.716Z,2.50
2018-11-22T19:25:41.108Z,2.50
2018-11-22T19:28:29.496Z,2.50
2018-11-22T19:31:17.863Z,2.50
2018-11-22T19:34:06.360Z,2.40
2018-11-22T19:36:54.700Z,2.40
2018-11-22T19:39:43.080Z,2.40
2018-11-22T19:45:41.605Z,2.30
2018-11-22T19:48:29.980Z,2.30
2018-11-22T19:51:18.336Z,2.30
2018-11-22T19:54:06.954Z,2.20
2018-11-22T19:56:55.325Z,2.20
2018-11-22T19:59:43.688Z,2.20
2018-11-22T20:02:32.308Z,2.20
2018-11-22T20:08:19.121Z,2.10
2018-11-22T20:11:07.632Z,2.10
2018-11-22T20:13:56.260Z,2.10
2018-11-22T20:16:44.851Z,2.10
2018-11-22T20:22:28.911Z,2.10
2018-11-22T20:25:12.304Z,2.00
2018-11-22T20:27:55.698Z,2.00
2018-11-22T20:30:37.949Z,2.00
2018-11-22T20:33:19.429Z,2.00
2018-11-22T20:36:00.761Z,2.00
2018-11-22T20:38:41.559Z,2.00
2018-11-22T20:44:08.420Z,2.00
2018-11-22T20:46:49.764Z,1.90
2018-11-22T20:52:27.877Z,1.90
2018-11-22T20:55:09.016Z,1.80
2018-11-22T21:00:39.702Z,1.80
2018-11-22T21:06:09.439Z,1.70
2018-11-22T21:11:43.561Z,1.70
2018-11-22T21:14:23.159Z,1.70
2018-11-22T21:17:04.352Z,1.60
2018-11-22T21:19:46.178Z,1.60
2018-11-22T21:22:27.529Z,1.60
2018-11-22T21:25:08.703Z,1.60
2018-11-22T21:33:35.222Z,1.60
2018-11-22T21:39:13.917Z,1.60
2018-11-22T21:41:55.364Z,1.60
2018-11-22T21:47:28.225Z,1.60
2018-11-22T21:50:12.276Z,1.60
2018-11-22T21:55:38.065Z,1.60
2018-11-22T22:01:08.018Z,1.60
2018-11-22T22:06:32.929Z,1.60
2018-11-22T22:14:48.670Z,1.50
2018-11-22T22:20:16.110Z,1.60
2018-11-22T22:25:43.093Z,1.50
2018-11-22T22:31:07.776Z,1.50
2018-11-22T22:36:39.310Z,1.60
2018-11-22T22:39:20.724Z,1.60
2018-11-22T22:42:01.216Z,1.50
2018-11-22T22:44:41.701Z,1.50
2018-11-22T22:50:14.555Z,1.50
2018-11-22T22:52:57.154Z,1.50
2018-11-22T22:55:39.314Z,1.50
2018-11-22T22:58:20.258Z,1.50
2018-11-22T23:01:04.544Z,1.50
2018-11-22T23:06:30.397Z,1.50
2018-11-22T23:12:00.993Z,1.50
2018-11-22T23:14:41.768Z,1.50
2018-11-22T23:17:22.925Z,1.50
2018-11-22T23:20:04.041Z,1.50
2018-11-22T23:22:45.715Z,1.50
2018-11-22T23:25:27.954Z,1.50
2018-11-22T23:28:09.149Z,1.50
2018-11-22T23:30:50.520Z,1.50
2018-11-22T23:36:13.193Z,1.50
2018-11-22T23:38:54.488Z,1.40
2018-11-22T23:41:34.901Z,1.40
2018-11-22T23:47:04.194Z,1.40
2018-11-22T23:49:45.465Z,1.40
2018-11-22T23:52:27.068Z,1.40
2018-11-22T23:55:08.453Z,1.40
2018-11-22T23:57:49.352Z,1.50
